createdAt,value
2022-09-23T00:02:10.811Z,17.63
2022-09-23T00:04:41.562Z,18.05
2022-09-23T00:07:09.987Z,16.85
2022-09-23T00:09:38.011Z,16.80
2022-09-23T00:12:09.050Z,16.40
2022-09-23T00:14:38.956Z,17.03
2022-09-23T00:17:07.508Z,16.88
2022-09-23T00:19:35.663Z,16.50
2022-09-23T00:22:05.256Z,17.00
2022-09-23T00:24:33.529Z,16.83
2022-09-23T00:27:01.744Z,17.50
2022-09-23T00:29:29.927Z,17.20
2022-09-23T00:31:57.917Z,16.37
2022-09-23T00:34:26.020Z,17.08
2022-09-23T00:36:53.963Z,18.13
2022-09-23T00:39:23.441Z,16.60
2022-09-23T00:41:51.446Z,16.50
2022-09-23T00:44:49.260Z,16.38
2022-09-23T00:47:22.981Z,17.73
2022-09-23T00:49:57.125Z,17.00
2022-09-23T00:52:25.796Z,17.10
2022-09-23T00:54:58.017Z,18.03
2022-09-23T00:57:28.808Z,16.93
2022-09-23T00:59:57.900Z,16.90
2022-09-23T01:02:26.923Z,18.95
2022-09-23T01:04:55.685Z,17.15
2022-09-23T01:07:23.670Z,17.20
2022-09-23T01:09:52.211Z,17.52
2022-09-23T01:12:34.986Z,17.90
2022-09-23T01:15:12.532Z,18.15
2022-09-23T01:17:49.006Z,18.23
2022-09-23T01:20:38.599Z,17.58
2022-09-23T01:23:22.871Z,17.75
2022-09-23T01:26:12.990Z,17.50
2022-09-23T01:29:02.356Z,18.50
2022-09-23T01:31:38.698Z,19.02
2022-09-23T01:34:15.164Z,17.17
2022-09-23T01:36:48.628Z,18.03
2022-09-23T01:39:25.290Z,17.67
2022-09-23T01:42:01.013Z,17.55
2022-09-23T01:44:35.565Z,17.98
2022-09-23T01:47:11.060Z,17.55
2022-09-23T01:49:46.386Z,17.52
2022-09-23T01:52:19.232Z,17.40
2022-09-23T01:54:54.188Z,17.52
2022-09-23T01:57:28.438Z,17.90
2022-09-23T02:00:02.218Z,17.53
2022-09-23T02:02:37.204Z,17.87
2022-09-23T02:05:10.125Z,17.63
2022-09-23T02:07:42.223Z,17.40
2022-09-23T02:10:15.022Z,18.00
2022-09-23T02:12:47.436Z,17.80
2022-09-23T02:15:18.810Z,17.48
2022-09-23T02:17:52.945Z,18.90
2022-09-23T02:20:25.960Z,17.70
2022-09-23T02:23:01.607Z,17.55
2022-09-23T02:25:36.211Z,17.40
2022-09-23T02:28:11.270Z,17.90
2022-09-23T02:30:46.261Z,17.92
2022-09-23T02:33:21.669Z,19.40
2022-09-23T02:35:54.981Z,18.10
2022-09-23T02:38:33.912Z,18.50
2022-09-23T02:41:08.373Z,17.30
2022-09-23T02:43:45.408Z,17.67
2022-09-23T02:46:14.075Z,17.83
2022-09-23T02:48:49.594Z,17.67
2022-09-23T02:51:17.852Z,18.10
2022-09-23T02:53:46.557Z,18.00
2022-09-23T02:56:16.749Z,18.87
2022-09-23T02:58:46.972Z,17.50
2022-09-23T03:01:24.118Z,17.90
2022-09-23T03:04:06.880Z,17.73
2022-09-23T03:06:48.250Z,17.17
2022-09-23T03:09:25.106Z,17.37
2022-09-23T03:12:00.641Z,17.23
2022-09-23T03:14:40.328Z,16.60
2022-09-23T03:17:15.987Z,16.50
2022-09-23T03:19:50.714Z,16.60
2022-09-23T03:22:24.120Z,17.13
2022-09-23T03:24:54.271Z,16.63
2022-09-23T03:27:26.779Z,17.33
2022-09-23T03:29:56.006Z,16.60
2022-09-23T03:32:26.844Z,16.80
2022-09-23T03:34:58.547Z,16.70
2022-09-23T03:37:31.431Z,16.30
2022-09-23T03:40:04.900Z,17.55
2022-09-23T03:42:34.978Z,17.02
2022-09-23T03:45:09.190Z,16.90
2022-09-23T03:47:39.554Z,16.70
2022-09-23T03:50:10.137Z,16.87
2022-09-23T03:52:39.767Z,16.10
2022-09-23T03:55:08.839Z,16.20
2022-09-23T03:57:37.118Z,16.77
2022-09-23T04:00:06.485Z,16.87
2022-09-23T04:02:34.599Z,16.80
2022-09-23T04:05:02.651Z,15.90
2022-09-23T04:07:32.341Z,16.00
2022-09-23T04:10:00.402Z,16.60
2022-09-23T04:12:28.414Z,27.83
2022-09-23T04:14:56.453Z,16.53
2022-09-23T04:17:24.748Z,15.60
2022-09-23T04:19:52.796Z,31.73
2022-09-23T04:22:20.783Z,22.93
2022-09-23T04:24:50.256Z,27.90
2022-09-23T04:27:18.344Z,25.73
2022-09-23T04:29:46.323Z,27.77
2022-09-23T04:32:14.282Z,27.37
2022-09-23T04:34:42.351Z,34.60
2022-09-23T04:37:10.632Z,28.93
2022-09-23T04:39:38.615Z,35.42
2022-09-23T04:42:08.224Z,35.33
2022-09-23T04:44:36.686Z,38.67
2022-09-23T04:47:04.795Z,37.20
2022-09-23T04:49:33.917Z,32.25
2022-09-23T04:52:02.878Z,36.57
2022-09-23T04:54:31.126Z,32.47
2022-09-23T04:56:59.183Z,28.70
2022-09-23T04:59:28.628Z,34.40
2022-09-23T05:01:56.676Z,24.20
2022-09-23T05:04:24.683Z,33.33
2022-09-23T05:06:52.745Z,37.50
2022-09-23T05:09:20.784Z,30.43
2022-09-23T05:11:48.806Z,28.37
2022-09-23T05:14:16.763Z,29.90
2022-09-23T05:16:46.092Z,25.93
2022-09-23T05:19:14.195Z,21.33
2022-09-23T05:21:42.168Z,21.10
2022-09-23T05:24:10.797Z,21.13
2022-09-23T05:26:39.344Z,22.50
2022-09-23T05:29:07.876Z,19.03
2022-09-23T05:31:36.931Z,22.63
2022-09-23T05:34:07.179Z,24.70
2022-09-23T05:36:39.038Z,22.73
2022-09-23T05:39:08.431Z,22.37
2022-09-23T05:41:37.130Z,23.37
2022-09-23T05:44:05.346Z,22.33
2022-09-23T05:46:34.055Z,21.50
2022-09-23T05:49:04.204Z,22.07
2022-09-23T05:51:35.840Z,23.53
2022-09-23T05:54:05.453Z,20.97
2022-09-23T05:56:35.056Z,22.00
2022-09-23T05:59:04.184Z,21.50
2022-09-23T06:01:34.390Z,22.30
2022-09-23T06:04:04.113Z,23.67
2022-09-23T06:06:35.469Z,21.87
2022-09-23T06:09:04.751Z,21.67
2022-09-23T06:11:34.486Z,21.90
2022-09-23T06:14:03.278Z,22.00
2022-09-23T06:16:33.425Z,23.17
2022-09-23T06:19:06.183Z,21.90
2022-09-23T06:21:37.938Z,21.53
2022-09-23T06:24:07.035Z,20.53
2022-09-23T06:26:35.632Z,22.80
2022-09-23T06:29:04.455Z,21.20
2022-09-23T06:31:33.039Z,20.53
2022-09-23T06:34:12.489Z,19.30
2022-09-23T06:36:45.451Z,20.60
2022-09-23T06:39:15.462Z,23.67
2022-09-23T06:41:44.012Z,22.10
2022-09-23T06:44:12.064Z,20.10
2022-09-23T06:46:40.108Z,21.50
2022-09-23T06:49:08.352Z,23.00
2022-09-23T06:51:36.713Z,23.67
2022-09-23T06:54:06.405Z,22.40
2022-09-23T06:56:38.753Z,27.40
2022-09-23T06:59:08.495Z,22.63
2022-09-23T07:01:36.643Z,22.57
2022-09-23T07:04:04.924Z,23.03
2022-09-23T07:06:33.031Z,20.10
2022-09-23T07:09:01.125Z,45.90
2022-09-23T07:11:31.018Z,46.30
2022-09-23T07:13:59.608Z,45.10
2022-09-23T07:16:27.637Z,46.27
2022-09-23T07:18:56.318Z,51.13
2022-09-23T07:21:26.542Z,49.17
2022-09-23T07:23:55.285Z,49.27
2022-09-23T07:26:23.778Z,49.63
2022-09-23T07:28:56.675Z,23.07
2022-09-23T07:31:37.440Z,22.00
2022-09-23T07:34:08.241Z,20.60
2022-09-23T07:36:37.496Z,20.73
2022-09-23T07:39:06.421Z,20.53
2022-09-23T07:41:36.146Z,21.40
2022-09-23T07:44:06.521Z,20.37
2022-09-23T07:46:37.025Z,21.20
2022-09-23T07:49:06.275Z,21.20
2022-09-23T07:51:36.787Z,21.83
2022-09-23T07:54:07.823Z,22.00
2022-09-23T07:56:37.337Z,21.73
2022-09-23T07:59:08.785Z,23.73
2022-09-23T08:01:39.334Z,50.33
2022-09-23T08:04:11.269Z,54.20
2022-09-23T08:06:43.067Z,61.57
2022-09-23T08:09:12.888Z,65.23
2022-09-23T08:11:42.080Z,172.23
2022-09-23T08:14:13.552Z,164.20
2022-09-23T08:16:41.961Z,132.60
2022-09-23T08:19:10.139Z,122.10
2022-09-23T08:21:39.389Z,75.97
2022-09-23T08:24:08.018Z,76.10
2022-09-23T08:26:36.534Z,80.30
2022-09-23T08:29:05.110Z,75.53
2022-09-23T08:31:34.449Z,74.87
2022-09-23T08:34:03.640Z,75.53
2022-09-23T08:36:32.636Z,76.60
2022-09-23T08:39:00.868Z,75.87
2022-09-23T08:41:37.158Z,75.43
2022-09-23T08:44:12.170Z,74.13
2022-09-23T08:46:46.496Z,75.00
2022-09-23T08:49:23.265Z,75.07
2022-09-23T08:51:54.866Z,78.97
2022-09-23T08:54:23.428Z,76.10
2022-09-23T08:56:53.302Z,80.13
2022-09-23T08:59:28.919Z,78.65
2022-09-23T09:02:01.626Z,77.83
2022-09-23T09:04:40.413Z,81.00
2022-09-23T09:07:35.689Z,81.00
2022-09-23T09:10:10.920Z,88.00
2022-09-23T09:12:44.333Z,82.97
2022-09-23T09:15:15.393Z,79.20
2022-09-23T09:17:59.290Z,81.45
2022-09-23T09:20:36.150Z,79.07
2022-09-23T09:23:13.636Z,82.93
2022-09-23T09:25:45.552Z,79.68
2022-09-23T09:28:21.265Z,81.30
2022-09-23T09:30:53.375Z,86.85
2022-09-23T09:33:29.959Z,82.78
2022-09-23T09:36:19.733Z,83.68
2022-09-23T09:38:48.106Z,82.20
2022-09-23T09:41:18.038Z,86.40
2022-09-23T09:43:52.437Z,88.15
2022-09-23T09:46:37.167Z,88.47
2022-09-23T09:49:12.865Z,89.43
2022-09-23T09:51:42.671Z,85.75
2022-09-23T09:54:20.532Z,86.35
2022-09-23T09:56:49.873Z,90.70
2022-09-23T09:59:23.137Z,88.50
2022-09-23T10:01:51.489Z,85.45
2022-09-23T10:04:28.576Z,80.95
2022-09-23T10:07:08.353Z,78.82
2022-09-23T10:09:39.208Z,87.40
2022-09-23T10:12:18.527Z,84.40
2022-09-23T10:14:50.582Z,85.63
2022-09-23T10:17:22.499Z,87.80
2022-09-23T10:20:00.754Z,83.47
2022-09-23T10:22:33.168Z,86.47
2022-09-23T10:25:05.787Z,83.43
2022-09-23T10:27:35.944Z,77.22
2022-09-23T10:30:06.906Z,85.30
2022-09-23T10:32:37.557Z,83.40
2022-09-23T10:35:16.266Z,83.90
2022-09-23T10:37:48.427Z,84.18
2022-09-23T10:40:37.507Z,88.13
2022-09-23T10:43:38.079Z,86.15
2022-09-23T10:46:29.241Z,85.55
2022-09-23T10:49:20.872Z,83.35
2022-09-23T10:52:02.691Z,86.25
2022-09-23T10:54:42.420Z,89.57
2022-09-23T10:57:40.729Z,86.78
2022-09-23T11:00:23.310Z,84.40
2022-09-23T11:03:15.395Z,80.82
2022-09-23T11:05:49.242Z,82.63
2022-09-23T11:08:40.495Z,86.75
2022-09-23T11:11:22.499Z,82.68
2022-09-23T11:14:09.542Z,83.72
2022-09-23T11:16:51.870Z,88.45
2022-09-23T11:19:35.119Z,82.90
2022-09-23T11:22:17.545Z,81.07
2022-09-23T11:25:06.772Z,84.88
2022-09-23T11:27:54.784Z,86.10
2022-09-23T11:30:23.098Z,85.43
2022-09-23T11:33:14.170Z,83.10
2022-09-23T11:35:49.197Z,87.00
2022-09-23T11:38:24.401Z,82.95
2022-09-23T11:40:59.247Z,83.30
2022-09-23T11:43:29.857Z,87.00
2022-09-23T11:46:02.181Z,90.10
2022-09-23T11:48:35.217Z,86.25
2022-09-23T11:51:07.481Z,85.50
2022-09-23T11:53:43.398Z,83.15
2022-09-23T11:56:31.837Z,85.50
2022-09-23T11:59:07.426Z,85.95
2022-09-23T12:01:44.280Z,90.35
2022-09-23T12:04:21.596Z,89.05
2022-09-23T12:06:55.235Z,86.82
2022-09-23T12:09:54.028Z,87.85
2022-09-23T12:12:27.143Z,90.10
2022-09-23T12:15:03.798Z,82.40
2022-09-23T12:17:52.090Z,90.18
2022-09-23T12:20:47.279Z,84.10
2022-09-23T12:23:29.478Z,81.60
2022-09-23T12:26:02.042Z,80.47
2022-09-23T12:28:36.494Z,83.57
2022-09-23T12:31:09.746Z,83.75
2022-09-23T12:33:38.866Z,79.03
2022-09-23T12:36:08.696Z,81.70
2022-09-23T12:38:41.272Z,83.53
2022-09-23T12:41:24.587Z,81.60
2022-09-23T12:43:56.757Z,80.22
2022-09-23T12:46:27.432Z,80.60
2022-09-23T12:49:03.801Z,84.85
2022-09-23T12:51:34.090Z,86.68
2022-09-23T12:54:24.501Z,88.32
2022-09-23T12:57:00.777Z,84.93
2022-09-23T12:59:32.659Z,86.93
2022-09-23T13:02:29.151Z,85.63
2022-09-23T13:05:36.555Z,89.97
2022-09-23T13:08:09.270Z,88.75
2022-09-23T13:10:44.121Z,86.13
2022-09-23T13:13:22.474Z,83.15
2022-09-23T13:15:53.606Z,86.68
2022-09-23T13:18:47.158Z,85.18
2022-09-23T13:21:37.982Z,87.15
2022-09-23T13:24:21.401Z,88.18
2022-09-23T13:26:52.196Z,79.63
2022-09-23T13:29:24.572Z,86.10
2022-09-23T13:31:54.478Z,86.50
2022-09-23T13:34:26.093Z,86.30
2022-09-23T13:36:54.372Z,85.03
2022-09-23T13:39:25.186Z,87.40
2022-09-23T13:41:56.060Z,85.60
2022-09-23T13:44:24.213Z,88.10
2022-09-23T13:46:56.368Z,86.70
2022-09-23T13:49:28.425Z,99.47
2022-09-23T13:51:58.236Z,87.07
2022-09-23T13:54:31.099Z,87.45
2022-09-23T13:56:59.742Z,88.18
2022-09-23T13:59:29.208Z,85.55
2022-09-23T14:02:16.131Z,86.95
2022-09-23T14:04:44.588Z,87.30
2022-09-23T14:07:15.138Z,93.40
2022-09-23T14:09:45.887Z,87.45
2022-09-23T14:12:14.317Z,85.50
2022-09-23T14:14:43.644Z,88.38
2022-09-23T14:17:19.324Z,86.35
2022-09-23T14:19:48.113Z,87.68
2022-09-23T14:22:25.100Z,81.72
2022-09-23T14:24:53.850Z,81.13
2022-09-23T14:27:28.470Z,78.55
2022-09-23T14:29:57.207Z,81.97
2022-09-23T14:32:28.876Z,22.77
2022-09-23T14:35:09.296Z,22.10
2022-09-23T14:38:01.386Z,21.88
2022-09-23T14:40:31.209Z,23.27
2022-09-23T14:43:03.162Z,21.38
2022-09-23T14:45:33.607Z,22.20
2022-09-23T14:48:08.426Z,19.30
2022-09-23T14:50:47.361Z,19.52
2022-09-23T14:53:46.446Z,19.60
2022-09-23T14:56:17.342Z,19.10
2022-09-23T14:58:52.422Z,19.95
2022-09-23T15:01:38.804Z,20.23
2022-09-23T15:04:29.583Z,19.00
2022-09-23T15:07:01.268Z,19.00
2022-09-23T15:09:34.094Z,19.67
2022-09-23T15:12:04.288Z,18.77
2022-09-23T15:14:39.098Z,19.20
2022-09-23T15:17:21.590Z,19.10
2022-09-23T15:19:56.618Z,18.80
2022-09-23T15:22:26.243Z,17.63
2022-09-23T15:24:55.796Z,18.00
2022-09-23T15:27:41.828Z,19.40
2022-09-23T15:30:17.207Z,19.20
2022-09-23T15:32:46.040Z,19.40
2022-09-23T15:35:18.780Z,19.05
2022-09-23T15:37:49.320Z,18.00
2022-09-23T15:40:22.762Z,18.73
2022-09-23T15:42:52.720Z,18.33
2022-09-23T15:45:27.472Z,17.38
2022-09-23T15:47:55.939Z,17.30
2022-09-23T15:50:25.354Z,16.50
2022-09-23T15:52:53.438Z,16.83
2022-09-23T15:55:22.998Z,16.63
2022-09-23T15:57:51.158Z,16.90
2022-09-23T16:00:19.340Z,17.67
2022-09-23T16:02:49.713Z,17.42
2022-09-23T16:05:38.060Z,17.10
2022-09-23T16:08:09.168Z,16.88
2022-09-23T16:10:38.390Z,17.30
2022-09-23T16:13:08.914Z,17.02
2022-09-23T16:15:39.125Z,16.25
2022-09-23T16:18:08.213Z,15.85
2022-09-23T16:20:39.341Z,14.80
2022-09-23T16:23:09.325Z,15.45
2022-09-23T16:25:38.039Z,15.80
2022-09-23T16:28:06.690Z,15.77
2022-09-23T16:30:35.366Z,15.73
2022-09-23T16:33:03.361Z,15.82
2022-09-23T16:35:34.578Z,15.88
2022-09-23T16:38:04.375Z,16.23
2022-09-23T16:40:32.706Z,16.52
2022-09-23T16:43:04.264Z,16.90
2022-09-23T16:45:32.486Z,17.17
2022-09-23T16:48:00.532Z,17.17
2022-09-23T16:50:29.326Z,19.52
2022-09-23T16:52:57.279Z,20.05
2022-09-23T16:55:27.355Z,30.65
2022-09-23T16:57:55.988Z,16.05
2022-09-23T17:00:42.338Z,16.70
2022-09-23T17:03:30.987Z,18.17
2022-09-23T17:06:01.561Z,17.38
2022-09-23T17:08:32.687Z,17.50
2022-09-23T17:11:02.413Z,17.70
2022-09-23T17:13:31.131Z,19.25
2022-09-23T17:15:59.422Z,17.40
2022-09-23T17:18:28.800Z,17.10
2022-09-23T17:21:01.400Z,17.33
2022-09-23T17:23:31.420Z,16.85
2022-09-23T17:26:01.132Z,16.75
2022-09-23T17:28:29.444Z,16.58
2022-09-23T17:30:59.112Z,16.23
2022-09-23T17:33:28.080Z,16.42
2022-09-23T17:35:56.894Z,16.55
2022-09-23T17:38:28.836Z,17.00
2022-09-23T17:41:01.393Z,17.40
2022-09-23T17:43:31.676Z,17.63
2022-09-23T17:46:05.251Z,17.55
2022-09-23T17:48:35.017Z,20.50
2022-09-23T17:51:04.852Z,17.50
2022-09-23T17:53:36.185Z,17.15
2022-09-23T17:56:05.957Z,17.40
2022-09-23T17:58:37.224Z,17.38
2022-09-23T18:01:05.793Z,21.63
2022-09-23T18:03:33.969Z,17.88
2022-09-23T18:06:10.464Z,17.80
2022-09-23T18:08:39.144Z,17.85
2022-09-23T18:11:19.546Z,17.27
2022-09-23T18:13:53.601Z,17.23
2022-09-23T18:16:23.668Z,17.45
2022-09-23T18:18:52.975Z,17.83
2022-09-23T18:21:21.671Z,17.00
2022-09-23T18:23:50.509Z,17.10
2022-09-23T18:26:22.188Z,17.00
2022-09-23T18:28:52.924Z,16.38
2022-09-23T18:31:22.601Z,16.80
2022-09-23T18:33:51.562Z,16.30
2022-09-23T18:36:20.275Z,17.58
2022-09-23T18:38:48.512Z,17.70
2022-09-23T18:41:17.197Z,17.83
2022-09-23T18:43:48.450Z,16.17
2022-09-23T18:46:19.638Z,16.95
2022-09-23T18:49:06.027Z,16.88
2022-09-23T18:51:35.175Z,18.35
2022-09-23T18:54:05.364Z,17.08
2022-09-23T18:56:39.294Z,17.20
2022-09-23T18:59:08.575Z,16.98
2022-09-23T19:01:38.045Z,15.40
2022-09-23T19:04:07.264Z,15.60
2022-09-23T19:06:35.958Z,16.58
2022-09-23T19:09:05.381Z,16.50
2022-09-23T19:11:36.566Z,16.65
2022-09-23T19:14:06.498Z,16.73
2022-09-23T19:16:35.015Z,16.48
2022-09-23T19:19:06.036Z,16.27
2022-09-23T19:21:34.917Z,17.27
2022-09-23T19:24:05.310Z,29.25
2022-09-23T19:26:36.807Z,16.75
2022-09-23T19:29:08.125Z,16.90
2022-09-23T19:31:40.608Z,16.45
2022-09-23T19:34:14.565Z,20.55
2022-09-23T19:36:44.253Z,16.77
2022-09-23T19:39:19.518Z,16.60
2022-09-23T19:41:48.453Z,23.50
2022-09-23T19:44:16.836Z,17.02
2022-09-23T19:46:45.902Z,16.30
2022-09-23T19:49:18.256Z,16.70
2022-09-23T19:51:47.226Z,17.00
2022-09-23T19:54:19.079Z,16.70
2022-09-23T19:56:47.629Z,16.60
2022-09-23T19:59:18.742Z,16.55
2022-09-23T20:01:48.124Z,16.30
2022-09-23T20:04:18.177Z,17.05
2022-09-23T20:06:47.659Z,16.63
2022-09-23T20:09:15.669Z,16.00
2022-09-23T20:11:44.301Z,15.68
2022-09-23T20:14:13.379Z,15.90
2022-09-23T20:16:41.565Z,15.50
2022-09-23T20:19:11.525Z,15.80
2022-09-23T20:21:40.886Z,15.68
2022-09-23T20:24:09.653Z,16.23
2022-09-23T20:26:55.299Z,16.20
2022-09-23T20:29:23.264Z,15.75
2022-09-23T20:31:53.281Z,15.10
2022-09-23T20:34:22.582Z,15.65
2022-09-23T20:36:51.982Z,15.30
2022-09-23T20:39:20.016Z,15.40
2022-09-23T20:41:48.912Z,15.10
2022-09-23T20:44:17.041Z,15.65
2022-09-23T20:46:48.501Z,15.43
2022-09-23T20:49:17.425Z,16.33
2022-09-23T20:51:45.738Z,16.70
2022-09-23T20:54:15.306Z,15.88
2022-09-23T20:56:43.460Z,15.63
2022-09-23T20:59:14.954Z,15.82
2022-09-23T21:01:43.852Z,15.20
2022-09-23T21:04:11.951Z,15.10
2022-09-23T21:06:40.057Z,14.75
2022-09-23T21:09:13.515Z,15.10
2022-09-23T21:11:42.886Z,16.52
2022-09-23T21:14:15.931Z,15.27
2022-09-23T21:16:49.938Z,14.80
2022-09-23T21:19:18.635Z,14.73
2022-09-23T21:21:46.793Z,14.93
2022-09-23T21:24:45.713Z,14.55
2022-09-23T21:27:05.659Z,15.00
2022-09-23T21:29:39.322Z,14.77
2022-09-23T21:32:10.364Z,15.18
2022-09-23T21:34:40.804Z,15.05
2022-09-23T21:37:08.760Z,13.70
2022-09-23T21:39:40.868Z,14.32
2022-09-23T21:42:12.042Z,15.55
2022-09-23T21:44:40.209Z,14.48
2022-09-23T21:47:10.106Z,14.82
2022-09-23T21:49:38.143Z,13.85
2022-09-23T21:52:09.152Z,14.80
2022-09-23T21:54:38.785Z,15.00
2022-09-23T21:57:08.187Z,14.80
2022-09-23T21:59:37.704Z,14.98
2022-09-23T22:02:05.695Z,14.75
2022-09-23T22:04:34.514Z,15.30
2022-09-23T22:07:04.559Z,14.90
2022-09-23T22:09:32.871Z,15.10
2022-09-23T22:12:08.620Z,15.10
2022-09-23T22:14:39.169Z,15.25
2022-09-23T22:17:10.910Z,15.40
2022-09-23T22:19:45.911Z,14.38
2022-09-23T22:22:17.706Z,15.10
2022-09-23T22:24:47.622Z,15.13
2022-09-23T22:27:17.993Z,14.93
2022-09-23T22:30:05.490Z,15.20
2022-09-23T22:32:43.500Z,15.23
2022-09-23T22:35:13.602Z,15.05
2022-09-23T22:37:41.609Z,14.90
2022-09-23T22:40:14.099Z,15.45
2022-09-23T22:42:42.431Z,15.07
2022-09-23T22:45:13.482Z,14.82
2022-09-23T22:47:45.549Z,14.68
2022-09-23T22:50:15.316Z,14.93
2022-09-23T22:52:43.842Z,15.30
2022-09-23T22:55:12.292Z,15.20
2022-09-23T22:57:40.300Z,14.55
2022-09-23T23:00:12.718Z,15.15
2022-09-23T23:02:42.455Z,15.77
2022-09-23T23:05:11.033Z,15.10
2022-09-23T23:07:39.114Z,15.80
2022-09-23T23:10:08.875Z,16.13
2022-09-23T23:12:40.137Z,15.00
2022-09-23T23:15:11.864Z,16.02
2022-09-23T23:17:43.650Z,16.55
2022-09-23T23:20:11.826Z,15.80
2022-09-23T23:22:42.785Z,15.50
2022-09-23T23:25:11.133Z,15.60
2022-09-23T23:27:39.259Z,16.58
2022-09-23T23:30:09.364Z,17.15
2022-09-23T23:32:37.408Z,15.60
2022-09-23T23:35:09.744Z,15.70
2022-09-23T23:37:37.934Z,15.52
2022-09-23T23:40:09.177Z,15.32
2022-09-23T23:42:42.408Z,16.20
2022-09-23T23:45:10.752Z,16.20
2022-09-23T23:47:41.159Z,15.50
2022-09-23T23:50:12.248Z,16.83
2022-09-23T23:52:42.836Z,14.95
2022-09-23T23:55:13.631Z,16.55
2022-09-23T23:57:41.601Z,16.38
